Pure Air, Missouri
Current Conditions -  °F | °C
As of 6:12 PM on Sunday 23 Nov 2014 (Local Time) from KIRK Reporting Station
Haze Haze  
Wind Chill: 12°   Ceiling: 500
Heat Index: 12°   Visibility: 1mi
Dew Point: 12°   Wind: 5mph
Humidity: 100%   Direction: 260°W
Pressure: 29.3"   Gusts: NA
Location:  40.2969°N, 92.7524°W
Report Text: KIRK 240012Z AUTO 26004KT 1SM BR BKN005 OVC017 12/12 A2930 RMK AO2 T01170117
Loading
Personal Weather Stations






























Interactive Weather Map New forecast layout! Learn more

10-Day Weather Forecast

Advertisements
Track Severe Weather on mobile